Terminal Aerodrome Forecast
Issued by NWS Cleveland, OH

Home | Current Version | Previous Version | Text Only | Print | Product List | Glossary On
Versions: 1 2 3 4 5 6 7 8 9 10 11 12 13 14 15 16 17 18 19 20 21
000
FTUS41 KCLE 272000 AAB
TAFMFD
TAF AMD
KMFD 272019Z 2720/2818 35010KT P6SM SCT025
      TEMPO 2720/2724 BKN025
     FM280000 02004KT P6SM SCT250
     FM280700 02004KT 2SM BR SCT250
     FM281400 02004KT P6SM SCT250=

USA.gov is the U.S. government's official web portal to all federal, state and local government web resources and services.